sensor_id;sensor_type;location;lat;lon;timestamp;pressure;altitude;pressure_sealevel;temperature;humidity
50302;BME280;36550;50.472;19.744;2023-05-07T00:00:33;98245.59;;;8.50;87.28
50302;BME280;36550;50.472;19.744;2023-05-07T00:04:18;98244.83;;;8.45;87.32
50302;BME280;36550;50.472;19.744;2023-05-07T00:08:02;98238.48;;;8.44;87.28
50302;BME280;36550;50.472;19.744;2023-05-07T00:11:27;98238.17;;;8.43;87.32
50302;BME280;36550;50.472;19.744;2023-05-07T00:14:32;98237.59;;;8.40;87.38
50302;BME280;36550;50.472;19.744;2023-05-07T00:18:17;98240.52;;;8.41;87.45
50302;BME280;36550;50.472;19.744;2023-05-07T00:22:01;98237.15;;;8.35;87.74
50302;BME280;36550;50.472;19.744;2023-05-07T00:25:45;98239.55;;;8.26;87.93
50302;BME280;36550;50.472;19.744;2023-05-07T00:29:29;98245.27;;;8.20;87.98
50302;BME280;36550;50.472;19.744;2023-05-07T00:33:14;98245.67;;;8.20;88.05
50302;BME280;36550;50.472;19.744;2023-05-07T00:36:58;98247.05;;;8.20;87.94
50302;BME280;36550;50.472;19.744;2023-05-07T00:40:43;98254.33;;;8.24;88.06
50302;BME280;36550;50.472;19.744;2023-05-07T00:44:27;98254.96;;;8.24;88.02
50302;BME280;36550;50.472;19.744;2023-05-07T00:48:11;98260.27;;;8.20;88.04
50302;BME280;36550;50.472;19.744;2023-05-07T00:51:56;98260.57;;;8.18;87.99
50302;BME280;36550;50.472;19.744;2023-05-07T00:55:40;98261.91;;;8.16;88.13
50302;BME280;36550;50.472;19.744;2023-05-07T00:59:24;98264.26;;;8.15;88.26
50302;BME280;36550;50.472;19.744;2023-05-07T01:02:48;98264.45;;;8.10;88.15
50302;BME280;36550;50.472;19.744;2023-05-07T01:05:52;98265.23;;;8.08;88.12
50302;BME280;36550;50.472;19.744;2023-05-07T01:09:36;98268.73;;;8.08;88.42
50302;BME280;36550;50.472;19.744;2023-05-07T01:13:20;98269.10;;;8.08;88.26
50302;BME280;36550;50.472;19.744;2023-05-07T01:17:04;98266.23;;;8.09;88.17
50302;BME280;36550;50.472;19.744;2023-05-07T01:20:49;98263.23;;;8.06;88.31
50302;BME280;36550;50.472;19.744;2023-05-07T01:24:33;98264.18;;;8.02;88.30
50302;BME280;36550;50.472;19.744;2023-05-07T01:28:17;98263.38;;;8.01;88.37
50302;BME280;36550;50.472;19.744;2023-05-07T01:32:01;98262.43;;;7.99;88.44
50302;BME280;36550;50.472;19.744;2023-05-07T01:35:47;98267.90;;;7.98;88.37
50302;BME280;36550;50.472;19.744;2023-05-07T01:39:31;98268.63;;;7.99;88.53
50302;BME280;36550;50.472;19.744;2023-05-07T01:43:15;98273.17;;;7.97;88.53
50302;BME280;36550;50.472;19.744;2023-05-07T01:46:59;98274.89;;;7.99;88.57
50302;BME280;36550;50.472;19.744;2023-05-07T01:50:44;98276.08;;;7.98;88.64
50302;BME280;36550;50.472;19.744;2023-05-07T01:54:28;98273.63;;;7.89;88.66
50302;BME280;36550;50.472;19.744;2023-05-07T01:58:13;98275.98;;;7.86;88.65
50302;BME280;36550;50.472;19.744;2023-05-07T02:01:58;98280.18;;;7.89;88.73
50302;BME280;36550;50.472;19.744;2023-05-07T02:05:42;98280.15;;;7.87;88.63
50302;BME280;36550;50.472;19.744;2023-05-07T02:09:26;98280.17;;;7.91;88.56
50302;BME280;36550;50.472;19.744;2023-05-07T02:12:31;98280.81;;;7.90;88.56
50302;BME280;36550;50.472;19.744;2023-05-07T02:15:54;98283.27;;;7.91;88.69
50302;BME280;36550;50.472;19.744;2023-05-07T02:19:39;98279.09;;;7.90;88.55
50302;BME280;36550;50.472;19.744;2023-05-07T02:22:43;98280.13;;;7.86;88.46
50302;BME280;36550;50.472;19.744;2023-05-07T02:26:27;98284.80;;;7.82;88.36
50302;BME280;36550;50.472;19.744;2023-05-07T02:30:13;98283.51;;;7.83;88.42
50302;BME280;36550;50.472;19.744;2023-05-07T02:33:56;98285.83;;;7.86;88.28
50302;BME280;36550;50.472;19.744;2023-05-07T02:37:41;98291.45;;;7.87;88.25
50302;BME280;36550;50.472;19.744;2023-05-07T02:41:25;98287.38;;;7.81;88.16
50302;BME280;36550;50.472;19.744;2023-05-07T02:45:09;98291.30;;;7.77;88.20
50302;BME280;36550;50.472;19.744;2023-05-07T02:48:54;98293.21;;;7.70;88.32
50302;BME280;36550;50.472;19.744;2023-05-07T02:52:38;98293.38;;;7.61;88.42
50302;BME280;36550;50.472;19.744;2023-05-07T02:56:22;98301.25;;;7.55;88.70
50302;BME280;36550;50.472;19.744;2023-05-07T03:03:36;98304.10;;;7.44;89.01
50302;BME280;36550;50.472;19.744;2023-05-07T03:07:20;98304.52;;;7.38;89.17
50302;BME280;36550;50.472;19.744;2023-05-07T03:11:04;98301.45;;;7.32;89.10
50302;BME280;36550;50.472;19.744;2023-05-07T03:14:48;98304.70;;;7.30;89.32
50302;BME280;36550;50.472;19.744;2023-05-07T03:18:33;98305.77;;;7.23;89.52
50302;BME280;36550;50.472;19.744;2023-05-07T03:22:17;98309.71;;;7.19;89.69
50302;BME280;36550;50.472;19.744;2023-05-07T03:26:01;98313.08;;;7.13;89.75
50302;BME280;36550;50.472;19.744;2023-05-07T03:29:45;98316.16;;;7.10;89.77
50302;BME280;36550;50.472;19.744;2023-05-07T03:33:29;98321.46;;;7.11;89.95
50302;BME280;36550;50.472;19.744;2023-05-07T03:37:13;98326.89;;;7.07;90.04
50302;BME280;36550;50.472;19.744;2023-05-07T03:40:57;98326.42;;;6.96;90.16
50302;BME280;36550;50.472;19.744;2023-05-07T03:44:41;98331.65;;;6.87;90.20
50302;BME280;36550;50.472;19.744;2023-05-07T03:48:26;98338.67;;;6.83;90.29
50302;BME280;36550;50.472;19.744;2023-05-07T03:52:10;98343.86;;;6.78;90.42
50302;BME280;36550;50.472;19.744;2023-05-07T03:55:54;98351.32;;;6.71;90.70
50302;BME280;36550;50.472;19.744;2023-05-07T03:59:38;98358.70;;;6.68;90.82
50302;BME280;36550;50.472;19.744;2023-05-07T04:03:03;98361.30;;;6.66;90.73
50302;BME280;36550;50.472;19.744;2023-05-07T04:06:28;98365.52;;;6.65;90.75
50302;BME280;36550;50.472;19.744;2023-05-07T04:10:12;98368.38;;;6.63;90.77
50302;BME280;36550;50.472;19.744;2023-05-07T04:13:57;98372.02;;;6.60;90.78
50302;BME280;36550;50.472;19.744;2023-05-07T04:17:21;98376.74;;;6.59;90.76
50302;BME280;36550;50.472;19.744;2023-05-07T04:20:26;98382.44;;;6.55;90.72
50302;BME280;36550;50.472;19.744;2023-05-07T04:24:11;98385.70;;;6.57;90.71
50302;BME280;36550;50.472;19.744;2023-05-07T04:27:55;98392.31;;;6.56;90.76
50302;BME280;36550;50.472;19.744;2023-05-07T04:31:40;98397.20;;;6.52;90.72
50302;BME280;36550;50.472;19.744;2023-05-07T04:35:24;98402.48;;;6.49;90.60
50302;BME280;36550;50.472;19.744;2023-05-07T04:39:08;98410.46;;;6.49;90.64
50302;BME280;36550;50.472;19.744;2023-05-07T04:42:53;98410.63;;;6.52;90.57
50302;BME280;36550;50.472;19.744;2023-05-07T04:46:37;98417.30;;;6.55;90.59
50302;BME280;36550;50.472;19.744;2023-05-07T04:50:21;98417.81;;;6.52;90.68
50302;BME280;36550;50.472;19.744;2023-05-07T04:54:06;98427.50;;;6.44;90.76
50302;BME280;36550;50.472;19.744;2023-05-07T04:57:51;98431.29;;;6.33;90.88
50302;BME280;36550;50.472;19.744;2023-05-07T05:01:35;98434.80;;;6.28;90.73
50302;BME280;36550;50.472;19.744;2023-05-07T05:05:19;98444.98;;;6.29;90.86
50302;BME280;36550;50.472;19.744;2023-05-07T05:09:03;98448.23;;;6.28;90.82
50302;BME280;36550;50.472;19.744;2023-05-07T05:12:48;98450.64;;;6.31;90.83
50302;BME280;36550;50.472;19.744;2023-05-07T05:16:32;98455.03;;;6.33;90.62
50302;BME280;36550;50.472;19.744;2023-05-07T05:20:16;98465.25;;;6.35;90.57
50302;BME280;36550;50.472;19.744;2023-05-07T05:24:00;98465.15;;;6.37;90.54
50302;BME280;36550;50.472;19.744;2023-05-07T05:27:44;98464.67;;;6.40;90.22
50302;BME280;36550;50.472;19.744;2023-05-07T05:31:28;98473.99;;;6.44;90.24
50302;BME280;36550;50.472;19.744;2023-05-07T05:34:51;98477.06;;;6.45;90.15
50302;BME280;36550;50.472;19.744;2023-05-07T05:38:15;98479.26;;;6.45;89.93
50302;BME280;36550;50.472;19.744;2023-05-07T05:42:00;98479.45;;;6.48;89.85
50302;BME280;36550;50.472;19.744;2023-05-07T05:45:44;98483.95;;;6.52;89.88
50302;BME280;36550;50.472;19.744;2023-05-07T05:49:28;98485.45;;;6.54;89.76
50302;BME280;36550;50.472;19.744;2023-05-07T05:53:13;98490.61;;;6.59;89.59
50302;BME280;36550;50.472;19.744;2023-05-07T05:56:57;98494.91;;;6.52;89.36
50302;BME280;36550;50.472;19.744;2023-05-07T06:00:42;98497.68;;;6.51;89.43
50302;BME280;36550;50.472;19.744;2023-05-07T06:04:27;98498.29;;;6.52;89.48
50302;BME280;36550;50.472;19.744;2023-05-07T06:08:10;98504.67;;;6.54;89.53
50302;BME280;36550;50.472;19.744;2023-05-07T06:11:55;98506.12;;;6.55;89.50
50302;BME280;36550;50.472;19.744;2023-05-07T06:15:39;98508.91;;;6.59;89.51
50302;BME280;36550;50.472;19.744;2023-05-07T06:19:23;98512.64;;;6.62;89.53
50302;BME280;36550;50.472;19.744;2023-05-07T06:23:07;98517.36;;;6.60;89.54
50302;BME280;36550;50.472;19.744;2023-05-07T06:26:52;98522.44;;;6.68;89.47
50302;BME280;36550;50.472;19.744;2023-05-07T06:30:36;98521.14;;;6.72;89.40
50302;BME280;36550;50.472;19.744;2023-05-07T06:34:20;98525.52;;;6.78;89.20
50302;BME280;36550;50.472;19.744;2023-05-07T06:38:07;98527.63;;;6.82;89.06
50302;BME280;36550;50.472;19.744;2023-05-07T06:41:51;98528.58;;;6.83;88.84
50302;BME280;36550;50.472;19.744;2023-05-07T06:45:36;98532.77;;;6.75;88.78
50302;BME280;36550;50.472;19.744;2023-05-07T06:49:20;98536.52;;;6.65;88.81
50302;BME280;36550;50.472;19.744;2023-05-07T06:53:04;98537.74;;;6.60;88.89
50302;BME280;36550;50.472;19.744;2023-05-07T06:56:48;98535.23;;;6.52;88.97
50302;BME280;36550;50.472;19.744;2023-05-07T07:00:32;98538.77;;;6.54;89.17
50302;BME280;36550;50.472;19.744;2023-05-07T07:04:16;98550.85;;;6.56;89.16
50302;BME280;36550;50.472;19.744;2023-05-07T07:08:09;98547.34;;;6.50;89.27
50302;BME280;36550;50.472;19.744;2023-05-07T07:11:33;98549.33;;;6.53;89.18
50302;BME280;36550;50.472;19.744;2023-05-07T07:14:17;98552.36;;;6.60;89.19
50302;BME280;36550;50.472;19.744;2023-05-07T07:17:18;98560.14;;;6.68;89.29
50302;BME280;36550;50.472;19.744;2023-05-07T07:20:02;98559.14;;;6.76;89.18
50302;BME280;36550;50.472;19.744;2023-05-07T07:23:47;98565.06;;;6.80;88.86
50302;BME280;36550;50.472;19.744;2023-05-07T07:27:30;98568.51;;;6.79;88.56
50302;BME280;36550;50.472;19.744;2023-05-07T07:31:14;98578.58;;;6.80;88.45
50302;BME280;36550;50.472;19.744;2023-05-07T07:34:59;98581.95;;;6.79;88.27
50302;BME280;36550;50.472;19.744;2023-05-07T07:38:44;98579.77;;;6.73;88.27
50302;BME280;36550;50.472;19.744;2023-05-07T07:42:28;98582.11;;;6.73;88.31
50302;BME280;36550;50.472;19.744;2023-05-07T07:46:12;98579.88;;;6.74;88.34
50302;BME280;36550;50.472;19.744;2023-05-07T07:49:57;98586.40;;;6.78;88.38
50302;BME280;36550;50.472;19.744;2023-05-07T07:53:41;98594.66;;;6.75;88.27
50302;BME280;36550;50.472;19.744;2023-05-07T07:57:25;98595.30;;;6.82;88.25
50302;BME280;36550;50.472;19.744;2023-05-07T08:01:09;98598.30;;;6.80;88.04
50302;BME280;36550;50.472;19.744;2023-05-07T08:04:53;98607.90;;;6.86;88.15
50302;BME280;36550;50.472;19.744;2023-05-07T08:08:37;98605.48;;;6.89;87.98
50302;BME280;36550;50.472;19.744;2023-05-07T08:12:21;98609.77;;;6.90;87.70
50302;BME280;36550;50.472;19.744;2023-05-07T08:16:05;98612.02;;;6.92;87.71
50302;BME280;36550;50.472;19.744;2023-05-07T08:19:50;98615.21;;;6.94;87.57
50302;BME280;36550;50.472;19.744;2023-05-07T08:23:33;98619.88;;;6.96;87.62
50302;BME280;36550;50.472;19.744;2023-05-07T08:27:18;98617.23;;;6.94;87.42
50302;BME280;36550;50.472;19.744;2023-05-07T08:30:42;98618.41;;;6.93;87.54
50302;BME280;36550;50.472;19.744;2023-05-07T08:33:46;98624.61;;;6.96;87.46
50302;BME280;36550;50.472;19.744;2023-05-07T08:37:30;98628.96;;;7.02;87.35
50302;BME280;36550;50.472;19.744;2023-05-07T08:41:14;98635.93;;;7.01;87.03
50302;BME280;36550;50.472;19.744;2023-05-07T08:44:58;98636.98;;;6.99;86.96
50302;BME280;36550;50.472;19.744;2023-05-07T08:48:42;98646.10;;;6.99;86.96
50302;BME280;36550;50.472;19.744;2023-05-07T08:52:26;98653.89;;;7.01;86.96
50302;BME280;36550;50.472;19.744;2023-05-07T08:56:11;98654.70;;;7.04;86.64
50302;BME280;36550;50.472;19.744;2023-05-07T08:59:55;98661.25;;;7.06;86.78
50302;BME280;36550;50.472;19.744;2023-05-07T09:03:40;98671.64;;;7.23;86.82
50302;BME280;36550;50.472;19.744;2023-05-07T09:07:23;98670.71;;;7.36;86.49
50302;BME280;36550;50.472;19.744;2023-05-07T09:11:07;98673.89;;;7.41;86.27
50302;BME280;36550;50.472;19.744;2023-05-07T09:14:51;98678.77;;;7.48;86.09
50302;BME280;36550;50.472;19.744;2023-05-07T09:18:34;98682.63;;;7.50;85.83
50302;BME280;36550;50.472;19.744;2023-05-07T09:22:19;98688.91;;;7.53;85.64
50302;BME280;36550;50.472;19.744;2023-05-07T09:26:03;98696.23;;;7.44;85.14
50302;BME280;36550;50.472;19.744;2023-05-07T09:29:07;98704.67;;;7.44;85.23
50302;BME280;36550;50.472;19.744;2023-05-07T09:32:35;98702.71;;;7.34;85.02
50302;BME280;36550;50.472;19.744;2023-05-07T09:36:20;98703.27;;;7.33;85.15
50302;BME280;36550;50.472;19.744;2023-05-07T09:40:04;98703.89;;;7.38;85.19
50302;BME280;36550;50.472;19.744;2023-05-07T09:43:48;98702.67;;;7.43;85.14
50302;BME280;36550;50.472;19.744;2023-05-07T09:47:32;98706.40;;;7.45;84.78
50302;BME280;36550;50.472;19.744;2023-05-07T09:51:29;98704.04;;;7.46;84.76
50302;BME280;36550;50.472;19.744;2023-05-07T09:55:13;98706.25;;;7.49;84.45
50302;BME280;36550;50.472;19.744;2023-05-07T09:58:59;98706.77;;;7.49;84.26
50302;BME280;36550;50.472;19.744;2023-05-07T10:02:41;98713.65;;;7.48;84.40
50302;BME280;36550;50.472;19.744;2023-05-07T10:06:25;98723.48;;;7.55;84.51
50302;BME280;36550;50.472;19.744;2023-05-07T10:10:10;98722.98;;;7.67;84.35
50302;BME280;36550;50.472;19.744;2023-05-07T10:13:54;98723.17;;;7.68;84.19
50302;BME280;36550;50.472;19.744;2023-05-07T10:17:39;98726.80;;;7.69;84.05
50302;BME280;36550;50.472;19.744;2023-05-07T10:21:44;98736.91;;;7.76;83.96
50302;BME280;36550;50.472;19.744;2023-05-07T10:25:37;98733.62;;;7.80;83.70
50302;BME280;36550;50.472;19.744;2023-05-07T10:29:28;98734.90;;;7.80;83.48
50302;BME280;36550;50.472;19.744;2023-05-07T10:33:06;98736.67;;;7.78;83.17
50302;BME280;36550;50.472;19.744;2023-05-07T10:36:50;98739.77;;;7.79;83.17
50302;BME280;36550;50.472;19.744;2023-05-07T10:40:34;98743.60;;;7.86;82.97
50302;BME280;36550;50.472;19.744;2023-05-07T10:44:28;98746.38;;;7.96;82.99
50302;BME280;36550;50.472;19.744;2023-05-07T10:48:27;98755.86;;;8.20;82.79
50302;BME280;36550;50.472;19.744;2023-05-07T10:52:10;98754.88;;;8.32;82.30
50302;BME280;36550;50.472;19.744;2023-05-07T10:59:38;98765.23;;;8.62;81.80
50302;BME280;36550;50.472;19.744;2023-05-07T11:03:22;98772.52;;;8.64;81.62
50302;BME280;36550;50.472;19.744;2023-05-07T11:07:20;98768.56;;;8.64;80.81
50302;BME280;36550;50.472;19.744;2023-05-07T11:10:53;98769.82;;;8.63;80.59
50302;BME280;36550;50.472;19.744;2023-05-07T11:14:44;98772.66;;;8.64;80.20
50302;BME280;36550;50.472;19.744;2023-05-07T11:18:26;98769.46;;;8.65;80.15
50302;BME280;36550;50.472;19.744;2023-05-07T11:21:50;98768.53;;;8.60;79.95
50302;BME280;36550;50.472;19.744;2023-05-07T11:25:01;98772.52;;;8.54;79.68
50302;BME280;36550;50.472;19.744;2023-05-07T11:28:45;98772.52;;;8.54;79.93
50302;BME280;36550;50.472;19.744;2023-05-07T11:32:30;98779.55;;;8.78;79.64
50302;BME280;36550;50.472;19.744;2023-05-07T11:36:13;98776.29;;;8.99;79.36
50302;BME280;36550;50.472;19.744;2023-05-07T11:39:38;98777.35;;;9.11;78.92
50302;BME280;36550;50.472;19.744;2023-05-07T11:42:47;98780.64;;;9.17;79.16
50302;BME280;36550;50.472;19.744;2023-05-07T11:46:31;98782.02;;;9.29;78.46
50302;BME280;36550;50.472;19.744;2023-05-07T11:50:15;98787.70;;;9.31;78.20
50302;BME280;36550;50.472;19.744;2023-05-07T11:53:59;98790.02;;;9.20;77.72
50302;BME280;36550;50.472;19.744;2023-05-07T11:57:44;98791.48;;;9.11;77.69
50302;BME280;36550;50.472;19.744;2023-05-07T12:01:29;98793.77;;;9.00;77.23
50302;BME280;36550;50.472;19.744;2023-05-07T12:05:14;98808.50;;;8.84;76.84
50302;BME280;36550;50.472;19.744;2023-05-07T12:08:59;98812.48;;;8.59;77.24
50302;BME280;36550;50.472;19.744;2023-05-07T12:12:23;98816.27;;;8.52;77.36
50302;BME280;36550;50.472;19.744;2023-05-07T12:15:08;98813.37;;;8.55;77.40
50302;BME280;36550;50.472;19.744;2023-05-07T12:18:53;98814.82;;;8.51;77.53
50302;BME280;36550;50.472;19.744;2023-05-07T12:22:17;98815.86;;;8.47;77.62
50302;BME280;36550;50.472;19.744;2023-05-07T12:25:42;98815.70;;;8.38;77.66
50302;BME280;36550;50.472;19.744;2023-05-07T12:29:26;98820.88;;;8.21;77.71
50302;BME280;36550;50.472;19.744;2023-05-07T12:33:10;98822.91;;;8.14;78.13
50302;BME280;36550;50.472;19.744;2023-05-07T12:36:56;98822.98;;;8.10;78.32
50302;BME280;36550;50.472;19.744;2023-05-07T12:40:42;98825.12;;;8.08;78.45
50302;BME280;36550;50.472;19.744;2023-05-07T12:44:25;98830.52;;;8.14;78.37
50302;BME280;36550;50.472;19.744;2023-05-07T12:47:49;98828.77;;;8.24;78.56
50302;BME280;36550;50.472;19.744;2023-05-07T12:50:54;98829.77;;;8.41;78.58
50302;BME280;36550;50.472;19.744;2023-05-07T12:54:47;98829.98;;;8.61;78.58
50302;BME280;36550;50.472;19.744;2023-05-07T12:58:16;98830.52;;;8.76;78.00
50302;BME280;36550;50.472;19.744;2023-05-07T13:01:58;98829.52;;;8.73;77.45
50302;BME280;36550;50.472;19.744;2023-05-07T13:05:23;98827.82;;;8.69;77.84
50302;BME280;36550;50.472;19.744;2023-05-07T13:09:07;98830.44;;;8.64;77.64
50302;BME280;36550;50.472;19.744;2023-05-07T13:12:52;98840.26;;;8.63;77.38
50302;BME280;36550;50.472;19.744;2023-05-07T13:16:35;98835.54;;;8.50;77.33
50302;BME280;36550;50.472;19.744;2023-05-07T13:20:00;98842.48;;;8.42;77.21
50302;BME280;36550;50.472;19.744;2023-05-07T13:23:45;98839.80;;;8.33;77.44
50302;BME280;36550;50.472;19.744;2023-05-07T13:27:29;98845.98;;;8.22;77.33
50302;BME280;36550;50.472;19.744;2023-05-07T13:31:13;98850.64;;;8.05;77.48
50302;BME280;36550;50.472;19.744;2023-05-07T13:34:38;98851.48;;;7.95;77.78
50302;BME280;36550;50.472;19.744;2023-05-07T13:38:21;98856.02;;;7.90;77.97
50302;BME280;36550;50.472;19.744;2023-05-07T13:42:06;98866.25;;;7.73;78.25
50302;BME280;36550;50.472;19.744;2023-05-07T13:45:51;98866.48;;;7.59;78.56
50302;BME280;36550;50.472;19.744;2023-05-07T13:49:35;98863.45;;;7.50;78.79
50302;BME280;36550;50.472;19.744;2023-05-07T13:53:19;98858.35;;;7.44;79.02
50302;BME280;36550;50.472;19.744;2023-05-07T13:57:04;98859.41;;;7.47;79.30
50302;BME280;36550;50.472;19.744;2023-05-07T14:00:48;98859.29;;;7.52;79.18
50302;BME280;36550;50.472;19.744;2023-05-07T14:04:33;98857.54;;;7.65;79.38
50302;BME280;36550;50.472;19.744;2023-05-07T14:08:16;98854.04;;;7.87;79.40
50302;BME280;36550;50.472;19.744;2023-05-07T14:12:01;98854.39;;;8.07;79.23
50302;BME280;36550;50.472;19.744;2023-05-07T14:15:45;98853.16;;;8.34;79.26
50302;BME280;36550;50.472;19.744;2023-05-07T14:19:29;98859.22;;;8.64;79.19
50302;BME280;36550;50.472;19.744;2023-05-07T14:23:14;98863.13;;;8.71;79.01
50302;BME280;36550;50.472;19.744;2023-05-07T14:26:57;98869.13;;;8.65;78.74
50302;BME280;36550;50.472;19.744;2023-05-07T14:30:41;98872.21;;;8.52;78.30
50302;BME280;36550;50.472;19.744;2023-05-07T14:34:25;98880.17;;;8.39;78.24
50302;BME280;36550;50.472;19.744;2023-05-07T14:37:49;98888.80;;;8.31;78.17
50302;BME280;36550;50.472;19.744;2023-05-07T14:41:33;98897.36;;;8.15;77.86
50302;BME280;36550;50.472;19.744;2023-05-07T14:44:57;98901.17;;;7.90;77.81
50302;BME280;36550;50.472;19.744;2023-05-07T14:48:21;98905.48;;;7.78;78.00
50302;BME280;36550;50.472;19.744;2023-05-07T14:52:06;98906.75;;;7.69;78.09
50302;BME280;36550;50.472;19.744;2023-05-07T14:55:50;98911.17;;;7.67;78.37
50302;BME280;36550;50.472;19.744;2023-05-07T14:59:34;98916.27;;;7.68;78.45
50302;BME280;36550;50.472;19.744;2023-05-07T15:02:37;98908.07;;;7.68;78.62
50302;BME280;36550;50.472;19.744;2023-05-07T15:05:42;98906.30;;;7.67;78.77
50302;BME280;36550;50.472;19.744;2023-05-07T15:09:26;98906.30;;;7.70;78.86
50302;BME280;36550;50.472;19.744;2023-05-07T15:13:11;98909.66;;;7.67;78.68
50302;BME280;36550;50.472;19.744;2023-05-07T15:16:55;98917.88;;;7.56;78.77
50302;BME280;36550;50.472;19.744;2023-05-07T15:20:39;98923.60;;;7.57;78.98
50302;BME280;36550;50.472;19.744;2023-05-07T15:24:23;98922.16;;;7.66;78.96
50302;BME280;36550;50.472;19.744;2023-05-07T15:28:07;98919.16;;;7.68;78.85
50302;BME280;36550;50.472;19.744;2023-05-07T15:31:51;98919.90;;;7.63;78.66
50302;BME280;36550;50.472;19.744;2023-05-07T15:35:36;98924.83;;;7.60;78.63
50302;BME280;36550;50.472;19.744;2023-05-07T15:39:20;98926.66;;;7.52;78.73
50302;BME280;36550;50.472;19.744;2023-05-07T15:42:44;98928.13;;;7.47;78.88
50302;BME280;36550;50.472;19.744;2023-05-07T15:46:28;98931.29;;;7.46;78.94
50302;BME280;36550;50.472;19.744;2023-05-07T15:50:13;98930.92;;;7.53;78.99
50302;BME280;36550;50.472;19.744;2023-05-07T15:53:57;98929.46;;;7.63;79.11
50302;BME280;36550;50.472;19.744;2023-05-07T15:57:42;98932.59;;;7.70;79.07
50302;BME280;36550;50.472;19.744;2023-05-07T16:01:26;98927.44;;;7.75;78.80
50302;BME280;36550;50.472;19.744;2023-05-07T16:05:10;98927.13;;;7.82;78.55
50302;BME280;36550;50.472;19.744;2023-05-07T16:08:55;98934.07;;;7.89;78.75
50302;BME280;36550;50.472;19.744;2023-05-07T16:12:40;98942.41;;;7.92;78.52
50302;BME280;36550;50.472;19.744;2023-05-07T16:16:24;98943.04;;;7.88;78.24
50302;BME280;36550;50.472;19.744;2023-05-07T16:20:09;98942.05;;;7.82;78.10
50302;BME280;36550;50.472;19.744;2023-05-07T16:23:53;98949.31;;;7.76;78.20
50302;BME280;36550;50.472;19.744;2023-05-07T16:27:38;98946.02;;;7.73;78.10
50302;BME280;36550;50.472;19.744;2023-05-07T16:31:22;98942.13;;;7.69;77.94
50302;BME280;36550;50.472;19.744;2023-05-07T16:35:07;98940.00;;;7.64;78.02
50302;BME280;36550;50.472;19.744;2023-05-07T16:38:52;98940.71;;;7.56;77.89
50302;BME280;36550;50.472;19.744;2023-05-07T16:42:36;98942.45;;;7.50;78.22
50302;BME280;36550;50.472;19.744;2023-05-07T16:46:21;98942.39;;;7.47;78.19
50302;BME280;36550;50.472;19.744;2023-05-07T16:49:45;98938.08;;;7.41;78.11
50302;BME280;36550;50.472;19.744;2023-05-07T16:53:29;98936.77;;;7.37;78.26
50302;BME280;36550;50.472;19.744;2023-05-07T16:57:14;98937.16;;;7.35;78.35
50302;BME280;36550;50.472;19.744;2023-05-07T17:00:58;98936.66;;;7.32;78.44
50302;BME280;36550;50.472;19.744;2023-05-07T17:04:42;98935.91;;;7.24;78.60
50302;BME280;36550;50.472;19.744;2023-05-07T17:08:26;98938.33;;;7.18;78.79
50302;BME280;36550;50.472;19.744;2023-05-07T17:12:11;98936.89;;;7.17;78.85
50302;BME280;36550;50.472;19.744;2023-05-07T17:15:55;98943.80;;;7.16;78.99
50302;BME280;36550;50.472;19.744;2023-05-07T17:19:42;98958.36;;;7.12;79.08
50302;BME280;36550;50.472;19.744;2023-05-07T17:22:55;98966.69;;;7.10;78.99
50302;BME280;36550;50.472;19.744;2023-05-07T17:26:22;98974.07;;;7.08;79.03
50302;BME280;36550;50.472;19.744;2023-05-07T17:29:46;98974.05;;;7.01;78.92
50302;BME280;36550;50.472;19.744;2023-05-07T17:32:50;98969.67;;;6.97;78.84
50302;BME280;36550;50.472;19.744;2023-05-07T17:36:35;98962.65;;;6.93;78.92
50302;BME280;36550;50.472;19.744;2023-05-07T17:40:19;98966.33;;;6.83;79.06
50302;BME280;36550;50.472;19.744;2023-05-07T17:44:03;98969.92;;;6.74;79.12
50302;BME280;36550;50.472;19.744;2023-05-07T17:47:47;98969.56;;;6.73;79.23
50302;BME280;36550;50.472;19.744;2023-05-07T17:51:32;98965.14;;;6.68;79.35
50302;BME280;36550;50.472;19.744;2023-05-07T17:54:56;98967.66;;;6.64;79.44
50302;BME280;36550;50.472;19.744;2023-05-07T17:58:21;98969.88;;;6.63;79.47
50302;BME280;36550;50.472;19.744;2023-05-07T18:01:45;98975.58;;;6.64;79.48
50302;BME280;36550;50.472;19.744;2023-05-07T18:04:53;98980.27;;;6.64;79.56
50302;BME280;36550;50.472;19.744;2023-05-07T18:08:38;98987.24;;;6.65;79.52
50302;BME280;36550;50.472;19.744;2023-05-07T18:12:22;98991.79;;;6.65;79.61
50302;BME280;36550;50.472;19.744;2023-05-07T18:15:46;98998.54;;;6.69;79.61
50302;BME280;36550;50.472;19.744;2023-05-07T18:19:11;99003.15;;;6.73;79.67
50302;BME280;36550;50.472;19.744;2023-05-07T18:22:54;99006.20;;;6.73;79.60
50302;BME280;36550;50.472;19.744;2023-05-07T18:26:18;99004.94;;;6.71;79.70
50302;BME280;36550;50.472;19.744;2023-05-07T18:30:06;99001.27;;;6.70;79.62
50302;BME280;36550;50.472;19.744;2023-05-07T18:33:50;99002.12;;;6.70;79.65
50302;BME280;36550;50.472;19.744;2023-05-07T18:37:15;99016.28;;;6.67;79.63
50302;BME280;36550;50.472;19.744;2023-05-07T18:40:23;99020.89;;;6.66;79.74
50302;BME280;36550;50.472;19.744;2023-05-07T18:44:17;99029.38;;;6.61;79.71
50302;BME280;36550;50.472;19.744;2023-05-07T18:48:01;99031.50;;;6.61;79.78
50302;BME280;36550;50.472;19.744;2023-05-07T18:51:45;99032.96;;;6.58;79.80
50302;BME280;36550;50.472;19.744;2023-05-07T18:55:32;99031.42;;;6.53;79.83
50302;BME280;36550;50.472;19.744;2023-05-07T18:59:16;99034.83;;;6.53;79.88
50302;BME280;36550;50.472;19.744;2023-05-07T19:02:37;99037.54;;;6.54;79.92
50302;BME280;36550;50.472;19.744;2023-05-07T19:06:01;99045.63;;;6.53;79.97
50302;BME280;36550;50.472;19.744;2023-05-07T19:09:08;99052.08;;;6.55;79.95
50302;BME280;36550;50.472;19.744;2023-05-07T19:12:53;99055.44;;;6.59;79.92
50302;BME280;36550;50.472;19.744;2023-05-07T19:16:37;99061.13;;;6.58;79.83
50302;BME280;36550;50.472;19.744;2023-05-07T19:20:21;99055.15;;;6.55;79.92
50302;BME280;36550;50.472;19.744;2023-05-07T19:24:05;99049.44;;;6.54;79.86
50302;BME280;36550;50.472;19.744;2023-05-07T19:27:49;99049.41;;;6.58;79.92